SUSO

Nueva Hesperides International Airport

Salto, Uruguay
TAF SUSO 181130Z 1812/1912 02005KT CAVOK TX17/1818Z TN04/1910Z PROB30 TEMPO 1803/1812 5000 BR NSC
Issued Valid From Valid To
Jun-18 @ 11:30 UTC
(2 hours ago)
Jun-18 @ 12:00 UTC
(an hour ago)
Jun-19 @ 12:00 UTC
(in 23 hours)
Jun-18 @ 12:00 to Jun-19 @ 12:00
TAF SUSO 181130Z 1812/1912 02005KT CAVOK TX17/1818Z TN04/1910Z
Wind Visibility Clouds
20° at 5 knots 10,000+ meters
  • No significant clouds
Expired Click to View Jun-18 @ 03:00 to Jun-18 @ 12:00
PROB30 TEMPO 1803/1812 5000 BR NSC
Visibility Clouds Conditions
5,005 meters
  • No significant clouds
  • Mist
TAF SUSO 181130Z 1812/1912 02005KT CAVOK TX17/1818Z TN04/1910Z PROB30 TEMPO 1803/1812 5000 BR NSC
Issued Jun-18 @ 11:30 UTC
(2 hours ago)
Valid From Jun-18 @ 12:00 UTC
(an hour ago)
Valid To Jun-19 @ 12:00 UTC
(in 23 hours)
Jun-18 @ 12:00 - Jun-19 @ 12:00
Wind Visibility
20° at 5 knots 10,000+ meters
Clouds
  • No significant clouds
Jun-18 @ 03:00 - Jun-18 @ 12:00
Clouds
  • No significant clouds
Conditions
  • Mist